Terminal Aerodrome Forecast
Issued by NWS Mt. Holly, NJ

Home | Current Version | Previous Version | Text Only | Print | Product List | Glossary On
Versions: 1 2 3 4 5 6 7 8 9 10 11 12 13 14 15 16 17 18 19 20 21 22 23 24 25 26 27 28 29 30
025
FTUS41 KPHI 191905 AAA
TAFACY
TAF AMD
KACY 191905Z 1919/2018 01015G25KT P6SM VCSH SCT015 OVC040
      TEMPO 1919/1922 4SM -SHRA BKN020 OVC035
     FM192200 36012G22KT P6SM VCSH OVC030
     FM200000 35010G20KT P6SM OVC025
     FM200500 32012KT P6SM BKN035
     FM201100 32012G20KT P6SM SCT040 BKN080=

USA.gov is the U.S. government's official web portal to all federal, state and local government web resources and services.